Time;durP1;ratioP1;P1;durP2;ratioP2;P2;SDS_P1;SDS_P2;PMS_P1;PMS_P2;Temp;Humidity;BMP_temperature;BMP_pressure;BME280_temperature;BME280_humidity;BME280_pressure;Samples;Min_cycle;Max_cycle;Signal;HPM_P1;HPM_P2
2022/04/16 00:01:52;;;;;;;1.73;1.63;;;18.40;40.50;;;;;;5005903;28;20436;-46
2022/04/16 00:04:18;;;;;;;1.63;1.53;;;18.40;40.60;;;;;;5005442;28;20190;-46
2022/04/16 00:06:44;;;;;;;2.20;1.50;;;18.40;40.60;;;;;;5011230;28;20441;-45
2022/04/16 00:09:09;;;;;;;1.70;1.60;;;18.30;40.80;;;;;;5005484;28;20202;-46
2022/04/16 00:11:36;;;;;;;1.70;1.60;;;18.30;40.60;;;;;;5002381;28;20197;-46
2022/04/16 00:14:03;;;;;;;1.53;1.43;;;18.30;40.50;;;;;;5003808;28;20733;-45
2022/04/16 00:16:29;;;;;;;1.70;1.60;;;18.30;40.40;;;;;;5010360;28;20504;-46
2022/04/16 00:18:58;;;;;;;1.97;1.77;;;18.10;40.50;;;;;;5007528;28;20571;-46
2022/04/16 00:21:27;;;;;;;1.80;1.33;;;18.10;40.50;;;;;;5001744;28;20944;-46
2022/04/16 00:23:53;;;;;;;3.07;1.60;;;18.20;40.60;;;;;;5007638;28;20467;-49
2022/04/16 00:26:20;;;;;;;1.53;1.43;;;18.20;40.70;;;;;;5002025;28;20433;-46
2022/04/16 00:28:46;;;;;;;2.10;1.90;;;18.10;40.60;;;;;;5003251;28;20492;-46
2022/04/16 00:31:14;;;;;;;1.60;1.50;;;18.20;40.60;;;;;;5001474;28;20443;-45
2022/04/16 00:33:39;;;;;;;1.77;1.67;;;18.20;40.40;;;;;;5009931;28;20252;-46
2022/04/16 00:36:05;;;;;;;2.97;1.80;;;18.20;40.50;;;;;;5001937;28;20441;-45
2022/04/16 00:38:30;;;;;;;1.67;1.57;;;18.20;40.60;;;;;;5002114;28;20225;-47
2022/04/16 00:40:56;;;;;;;1.87;1.60;;;18.20;40.60;;;;;;5005431;28;20194;-49
2022/04/16 00:43:27;;;;;;;1.60;1.50;;;18.30;40.50;;;;;;5008871;28;20186;-46
2022/04/16 00:45:53;;;;;;;1.80;1.67;;;18.30;40.20;;;;;;5003965;28;20613;-45
2022/04/16 00:48:22;;;;;;;1.70;1.60;;;18.30;40.20;;;;;;5003064;28;20492;-46
2022/04/16 00:50:53;;;;;;;2.23;2.07;;;18.30;40.20;;;;;;5003702;28;20444;-47
2022/04/16 00:53:19;;;;;;;2.47;1.60;;;18.10;40.30;;;;;;5008588;28;20445;-47
2022/04/16 00:55:45;;;;;;;2.00;1.80;;;18.10;40.30;;;;;;5005663;28;20444;-47
2022/04/16 00:58:11;;;;;;;1.80;1.70;;;18.00;40.30;;;;;;5005877;28;20511;-45
2022/04/16 01:00:36;;;;;;;2.03;1.53;;;17.90;40.70;;;;;;5006774;28;20453;-46
2022/04/16 01:03:03;;;;;;;2.00;1.80;;;17.90;40.80;;;;;;5006284;28;20198;-47
2022/04/16 01:05:29;;;;;;;4.27;1.93;;;17.80;41.60;;;;;;5000042;28;20243;-46
2022/04/16 01:08:02;;;;;;;1.73;1.60;;;17.70;41.90;;;;;;5004987;28;21008;-46
2022/04/16 01:10:32;;;;;;;1.60;1.50;;;17.80;41.20;;;;;;5001288;28;20317;-46
2022/04/16 01:13:03;;;;;;;1.73;1.60;;;17.90;41.20;;;;;;5000992;28;20459;-47
2022/04/16 01:15:30;;;;;;;1.73;1.63;;;17.90;40.90;;;;;;4999706;28;20449;-45
2022/04/16 01:17:57;;;;;;;1.93;1.80;;;17.90;40.70;;;;;;5005711;28;20453;-45
2022/04/16 01:20:23;;;;;;;1.57;1.47;;;18.00;40.80;;;;;;5005752;28;20432;-46
2022/04/16 01:22:50;;;;;;;2.10;2.00;;;18.00;40.50;;;;;;5008619;28;20623;-46
2022/04/16 01:25:16;;;;;;;1.73;1.63;;;18.00;40.50;;;;;;5006429;28;20803;-46
2022/04/16 01:27:48;;;;;;;2.57;2.30;;;17.90;40.60;;;;;;5004611;28;21014;-49
2022/04/16 01:30:16;;;;;;;2.27;2.07;;;17.90;40.60;;;;;;5002239;28;20441;-48
2022/04/16 01:32:42;;;;;;;1.90;1.63;;;17.80;40.50;;;;;;5006440;28;20447;-45
2022/04/16 01:35:08;;;;;;;2.30;2.10;;;17.80;40.80;;;;;;5007856;28;20440;-49
2022/04/16 01:37:35;;;;;;;2.57;1.87;;;17.80;41.20;;;;;;5001625;28;20205;-48
2022/04/16 01:40:06;;;;;;;1.70;1.60;;;17.80;41.00;;;;;;5016485;28;20444;-50
2022/04/16 01:42:34;;;;;;;2.53;1.70;;;17.70;40.80;;;;;;5006589;28;20464;-46
2022/04/16 01:45:05;;;;;;;1.90;1.70;;;17.80;40.90;;;;;;5000255;28;20898;-49
2022/04/16 01:47:30;;;;;;;2.00;1.90;;;17.80;41.00;;;;;;4998314;28;20991;-46
2022/04/16 01:49:57;;;;;;;1.90;1.80;;;17.90;40.90;;;;;;5011881;28;20453;-51
2022/04/16 01:52:23;;;;;;;1.80;1.70;;;17.90;40.70;;;;;;5007465;28;20194;-46
2022/04/16 01:54:51;;;;;;;2.03;1.73;;;18.00;40.80;;;;;;5006599;28;20452;-50
2022/04/16 01:57:18;;;;;;;1.90;1.80;;;18.00;40.60;;;;;;5009210;28;20194;-46
2022/04/16 01:59:48;;;;;;;1.83;1.73;;;18.00;40.60;;;;;;5003026;28;20437;-51
2022/04/16 02:02:15;;;;;;;1.90;1.70;;;18.00;40.50;;;;;;5005656;28;20859;-47
2022/04/16 02:04:41;;;;;;;3.20;2.03;;;18.10;40.60;;;;;;5000257;28;20477;-46
2022/04/16 02:07:06;;;;;;;2.60;2.03;;;18.10;40.60;;;;;;5006121;28;20559;-48
2022/04/16 02:09:32;;;;;;;2.10;1.90;;;18.10;40.60;;;;;;5003455;28;20499;-46
2022/04/16 02:11:58;;;;;;;5.60;2.00;;;18.10;40.40;;;;;;5005014;28;20255;-50
2022/04/16 02:14:24;;;;;;;2.23;2.10;;;18.10;40.40;;;;;;5004595;28;20284;-49
2022/04/16 02:16:50;;;;;;;3.40;1.70;;;18.10;40.30;;;;;;5000966;28;20263;-45
2022/04/16 02:19:16;;;;;;;2.20;2.10;;;18.00;40.30;;;;;;5006680;28;20194;-46
2022/04/16 02:21:42;;;;;;;1.80;1.70;;;18.00;40.40;;;;;;5010282;28;20535;-46
2022/04/16 02:24:08;;;;;;;2.40;2.20;;;17.90;40.50;;;;;;5007210;28;20451;-47
2022/04/16 02:26:34;;;;;;;1.87;1.77;;;17.90;40.60;;;;;;5005346;28;20701;-45
2022/04/16 02:29:00;;;;;;;3.10;1.97;;;17.90;40.60;;;;;;5000218;28;20226;-50
2022/04/16 02:31:28;;;;;;;2.20;2.00;;;17.80;40.70;;;;;;5004936;28;20202;-47
2022/04/16 02:33:57;;;;;;;2.47;2.27;;;17.80;40.80;;;;;;5004423;28;20351;-50
2022/04/16 02:36:25;;;;;;;2.60;2.40;;;17.70;40.80;;;;;;4999569;28;20449;-47
2022/04/16 02:38:54;;;;;;;2.67;1.77;;;17.70;40.80;;;;;;5002474;28;20449;-45
2022/04/16 02:41:20;;;;;;;2.10;2.00;;;17.70;40.90;;;;;;4999054;28;20797;-46
2022/04/16 02:43:46;;;;;;;1.90;1.80;;;17.70;40.80;;;;;;5002111;28;20496;-46
2022/04/16 02:48:56;;;;;;;2.40;2.20;;;17.70;41.00;;;;;;5002982;28;20731;-46
2022/04/16 02:51:22;;;;;;;2.63;2.23;;;17.60;41.30;;;;;;5001102;28;20441;-46
2022/04/16 02:53:47;;;;;;;2.30;2.10;;;17.60;41.30;;;;;;5000149;28;20221;-47
2022/04/16 02:56:13;;;;;;;2.40;2.20;;;17.60;41.20;;;;;;5000200;28;20189;-50
2022/04/16 02:58:38;;;;;;;2.80;1.80;;;17.60;41.00;;;;;;4996003;28;20831;-47
2022/04/16 03:01:04;;;;;;;2.17;1.97;;;17.60;41.40;;;;;;4999243;28;20208;-45
2022/04/16 03:03:30;;;;;;;2.20;2.10;;;17.60;42.00;;;;;;4999364;28;20260;-46
2022/04/16 03:05:55;;;;;;;2.23;2.03;;;17.60;41.60;;;;;;5000815;28;20197;-48
2022/04/16 03:08:24;;;;;;;2.03;1.80;;;17.50;41.80;;;;;;5001087;28;20814;-48
2022/04/16 03:10:51;;;;;;;2.20;2.00;;;17.40;41.90;;;;;;4996001;28;20671;-49
2022/04/16 03:13:17;;;;;;;2.20;2.00;;;17.40;42.00;;;;;;5008451;28;20552;-45
2022/04/16 03:18:27;;;;;;;2.57;2.03;;;17.20;42.20;;;;;;4997843;28;20451;-45
2022/04/16 03:20:53;;;;;;;2.33;2.13;;;17.20;42.20;;;;;;5013073;28;20439;-46
2022/04/16 03:23:19;;;;;;;2.30;2.10;;;17.20;42.30;;;;;;4999497;28;20199;-46
2022/04/16 03:25:45;;;;;;;1.80;1.70;;;17.10;42.30;;;;;;5000018;28;20494;-45
2022/04/16 03:28:11;;;;;;;2.20;2.00;;;17.10;42.40;;;;;;5000255;28;20229;-45
2022/04/16 03:30:38;;;;;;;2.00;1.90;;;17.00;42.50;;;;;;4997829;28;20198;-47
2022/04/16 03:33:05;;;;;;;2.47;1.90;;;17.00;43.00;;;;;;4999723;28;20475;-45
2022/04/16 03:35:30;;;;;;;2.60;2.40;;;17.00;43.40;;;;;;4999644;28;20437;-47
2022/04/16 03:37:56;;;;;;;2.33;2.10;;;17.00;43.00;;;;;;5004878;28;20459;-45
2022/04/16 03:40:26;;;;;;;3.03;2.10;;;16.90;43.00;;;;;;5001580;28;20194;-46
2022/04/16 03:43:02;;;;;;;5.20;2.17;;;16.90;42.90;;;;;;4999592;28;21477;-46
2022/04/16 03:45:32;;;;;;;1.80;1.70;;;16.90;43.30;;;;;;5003487;28;20565;-45
2022/04/16 03:47:59;;;;;;;2.67;2.47;;;16.90;42.90;;;;;;5003553;28;20503;-46
2022/04/16 03:50:26;;;;;;;4.13;2.00;;;16.90;43.10;;;;;;5003774;28;20505;-45
2022/04/16 03:52:53;;;;;;;2.23;2.10;;;16.90;43.10;;;;;;5014995;28;20530;-46
2022/04/16 04:00:50;;;;;;;2.47;2.27;;;16.90;42.90;;;;;;5003690;28;20503;-46
2022/04/16 04:03:16;;;;;;;2.43;2.23;;;16.80;42.80;;;;;;5003396;28;20472;-45
2022/04/16 04:05:44;;;;;;;2.77;2.57;;;16.70;43.00;;;;;;5006037;28;20433;-49
2022/04/16 04:08:09;;;;;;;2.17;2.03;;;16.60;43.40;;;;;;5000391;28;20491;-46
2022/04/16 04:10:36;;;;;;;2.37;2.03;;;16.60;43.20;;;;;;5004971;28;20453;-47
2022/04/16 04:13:02;;;;;;;2.20;2.10;;;16.50;43.20;;;;;;5000783;28;20205;-46
2022/04/16 04:15:29;;;;;;;3.47;2.40;;;16.30;43.40;;;;;;5003339;28;20530;-45
2022/04/16 04:17:56;;;;;;;2.67;2.47;;;16.10;43.60;;;;;;5001328;28;20514;-46
2022/04/16 04:20:22;;;;;;;2.30;2.10;;;16.00;44.00;;;;;;5001337;28;20448;-47
2022/04/16 04:22:47;;;;;;;2.97;2.77;;;15.80;44.40;;;;;;5011811;28;20836;-47
2022/04/16 04:25:13;;;;;;;2.70;2.50;;;15.60;44.90;;;;;;5001537;28;20472;-47
2022/04/16 04:27:38;;;;;;;3.53;2.03;;;15.40;45.30;;;;;;5003966;28;20217;-45
2022/04/16 04:30:05;;;;;;;2.43;2.23;;;15.20;46.00;;;;;;5002877;28;20201;-48
2022/04/16 04:32:31;;;;;;;2.60;2.20;;;15.10;46.60;;;;;;5003145;28;20280;-46
2022/04/16 04:34:57;;;;;;;2.37;2.17;;;15.00;46.90;;;;;;4999277;28;20514;-45
2022/04/16 04:37:23;;;;;;;2.93;2.60;;;14.90;47.00;;;;;;5002438;28;20441;-46
2022/04/16 04:39:49;;;;;;;2.70;2.50;;;14.90;47.00;;;;;;5002190;28;21045;-46
2022/04/16 04:42:25;;;;;;;2.00;1.90;;;14.80;47.10;;;;;;5001144;28;20449;-49
2022/04/16 04:44:51;;;;;;;2.73;2.53;;;14.80;47.60;;;;;;5006457;28;20487;-45
2022/04/16 04:47:16;;;;;;;3.87;2.80;;;14.80;47.40;;;;;;5001746;28;20480;-47
2022/04/16 04:49:42;;;;;;;2.60;2.40;;;14.60;47.70;;;;;;5002204;28;20688;-45
2022/04/16 04:52:08;;;;;;;4.63;3.83;;;14.50;48.00;;;;;;5000288;28;20200;-46
2022/04/16 04:54:33;;;;;;;3.77;2.53;;;14.30;48.40;;;;;;5002358;28;21195;-46
2022/04/16 04:56:59;;;;;;;2.70;2.50;;;14.20;48.60;;;;;;5001158;28;20190;-49
2022/04/16 04:59:25;;;;;;;2.37;2.17;;;14.20;48.80;;;;;;5002344;28;20238;-49
2022/04/16 05:01:50;;;;;;;3.10;2.80;;;14.00;49.10;;;;;;5002132;28;20236;-46
2022/04/16 05:04:16;;;;;;;6.57;4.10;;;13.90;49.30;;;;;;5003241;28;20216;-46
2022/04/16 05:06:42;;;;;;;8.90;4.60;;;13.90;49.40;;;;;;5002181;28;20186;-46
2022/04/16 05:09:07;;;;;;;5.50;4.73;;;14.10;49.30;;;;;;4999892;28;20230;-45
2022/04/16 05:11:33;;;;;;;7.03;3.73;;;14.10;49.30;;;;;;5002131;28;20596;-46
2022/04/16 05:13:58;;;;;;;3.27;2.97;;;14.20;49.20;;;;;;5004880;28;20202;-46
2022/04/16 05:16:24;;;;;;;3.60;2.80;;;14.20;49.10;;;;;;5005962;28;20213;-46
2022/04/16 05:18:50;;;;;;;3.23;2.80;;;14.20;49.20;;;;;;5006051;28;20198;-46
2022/04/16 05:21:15;;;;;;;4.20;1.97;;;14.30;49.10;;;;;;5007675;28;20233;-50
2022/04/16 05:23:41;;;;;;;2.27;2.07;;;14.40;49.10;;;;;;5006065;28;20194;-50
2022/04/16 05:26:08;;;;;;;2.93;2.30;;;14.30;49.40;;;;;;5005846;28;20208;-45
2022/04/16 05:28:35;;;;;;;2.80;2.60;;;14.40;49.30;;;;;;5009163;28;20221;-49
2022/04/16 05:31:02;;;;;;;2.90;2.50;;;14.40;49.10;;;;;;5001416;28;20460;-45
2022/04/16 05:36:12;;;;;;;2.30;2.10;;;14.50;49.10;;;;;;5000978;28;20472;-45
2022/04/16 05:38:37;;;;;;;2.77;2.40;;;14.50;49.50;;;;;;5008423;28;20433;-46
2022/04/16 05:41:03;;;;;;;2.80;2.60;;;14.60;49.60;;;;;;5005110;28;20193;-45
2022/04/16 05:43:29;;;;;;;2.60;2.30;;;14.60;49.50;;;;;;5008405;28;20583;-46
2022/04/16 05:45:54;;;;;;;3.47;3.17;;;14.60;49.30;;;;;;5008003;28;20236;-45
2022/04/16 05:48:20;;;;;;;3.27;3.00;;;14.60;49.50;;;;;;5007738;28;20237;-46
2022/04/16 05:50:46;;;;;;;4.30;2.50;;;14.70;49.70;;;;;;5007121;28;20268;-45
2022/04/16 05:53:13;;;;;;;2.50;2.30;;;14.70;49.80;;;;;;5010763;28;20270;-47
2022/04/16 05:55:43;;;;;;;2.77;2.57;;;14.70;49.90;;;;;;5008087;28;20528;-45
2022/04/16 05:58:09;;;;;;;2.83;2.63;;;14.70;49.90;;;;;;5000013;28;20457;-46
2022/04/16 06:00:36;;;;;;;2.80;2.60;;;14.70;49.70;;;;;;5005446;28;20474;-46
2022/04/16 06:03:03;;;;;;;3.03;2.43;;;14.70;49.80;;;;;;5004649;28;20568;-47
2022/04/16 06:05:31;;;;;;;3.90;3.13;;;14.60;49.70;;;;;;5009503;28;20447;-45
2022/04/16 06:07:56;;;;;;;3.00;2.80;;;14.60;49.80;;;;;;5006599;28;20534;-45
2022/04/16 06:10:22;;;;;;;3.70;3.07;;;14.70;49.80;;;;;;5005235;28;20913;-46
2022/04/16 06:12:47;;;;;;;4.20;3.80;;;14.80;49.40;;;;;;5002806;28;20209;-45
2022/04/16 06:15:13;;;;;;;5.03;3.07;;;14.70;49.40;;;;;;5011467;28;20193;-46
2022/04/16 06:17:38;;;;;;;3.63;3.33;;;14.70;49.30;;;;;;5005179;28;20225;-45
2022/04/16 06:20:06;;;;;;;3.37;3.07;;;14.80;49.30;;;;;;5008789;28;20185;-49
2022/04/16 06:22:32;;;;;;;3.10;2.80;;;14.80;49.40;;;;;;5014585;28;20194;-49
2022/04/16 06:24:57;;;;;;;4.70;3.23;;;14.90;49.20;;;;;;5010116;28;20445;-48
2022/04/16 06:27:23;;;;;;;2.70;2.50;;;14.90;49.20;;;;;;5007828;28;20284;-48
2022/04/16 06:29:49;;;;;;;2.83;2.63;;;15.00;49.10;;;;;;5010213;28;20205;-47
2022/04/16 06:32:14;;;;;;;3.60;3.30;;;15.10;49.00;;;;;;5010184;28;20208;-46
2022/04/16 06:34:40;;;;;;;2.90;2.60;;;15.10;48.90;;;;;;5009784;28;20240;-46
2022/04/16 06:37:06;;;;;;;3.20;2.87;;;15.20;48.90;;;;;;5010077;28;20194;-46
2022/04/16 06:39:31;;;;;;;2.60;2.40;;;15.20;48.90;;;;;;5010743;28;20194;-46
2022/04/16 06:41:57;;;;;;;4.20;2.67;;;15.20;49.00;;;;;;5009881;28;21072;-46
2022/04/16 06:44:22;;;;;;;3.10;2.80;;;15.30;49.10;;;;;;5009910;28;20558;-49
2022/04/16 06:46:50;;;;;;;2.83;2.63;;;15.30;49.20;;;;;;5009252;28;20198;-46
2022/04/16 06:49:16;;;;;;;4.07;2.60;;;15.20;49.20;;;;;;5016034;28;20238;-50
2022/04/16 06:51:42;;;;;;;4.80;2.93;;;15.20;49.40;;;;;;5009542;28;20429;-47
2022/04/16 06:54:08;;;;;;;4.00;3.60;;;15.20;49.30;;;;;;5008839;28;20198;-46
2022/04/16 06:56:34;;;;;;;4.70;3.40;;;15.30;49.20;;;;;;5010247;28;20980;-46
2022/04/16 06:59:00;;;;;;;3.90;3.50;;;15.20;49.10;;;;;;5012819;28;20577;-47
2022/04/16 07:01:26;;;;;;;4.20;3.60;;;15.10;49.30;;;;;;5009347;28;20669;-46
2022/04/16 07:03:51;;;;;;;3.10;2.80;;;15.00;49.40;;;;;;5010314;28;20436;-47
2022/04/16 07:06:17;;;;;;;5.47;2.60;;;15.10;49.50;;;;;;5009641;28;20221;-48
2022/04/16 07:08:42;;;;;;;8.50;3.40;;;15.10;49.50;;;;;;5009370;28;20225;-47
2022/04/16 07:11:08;;;;;;;2.80;2.60;;;15.20;49.50;;;;;;5010230;28;20197;-49
2022/04/16 07:13:33;;;;;;;3.87;3.57;;;15.30;49.20;;;;;;5010555;28;21026;-46
2022/04/16 07:15:59;;;;;;;3.23;2.93;;;15.40;49.20;;;;;;5009437;28;20198;-46
2022/04/16 07:18:25;;;;;;;5.57;3.20;;;15.40;49.30;;;;;;5007613;28;20209;-46
2022/04/16 07:20:51;;;;;;;3.30;3.00;;;15.40;49.10;;;;;;4999715;28;20201;-46
2022/04/16 07:23:16;;;;;;;6.57;3.10;;;15.40;49.00;;;;;;5005903;28;20436;-48
2022/04/16 07:25:42;;;;;;;4.50;3.00;;;15.50;48.90;;;;;;5001667;28;20205;-50
2022/04/16 07:28:07;;;;;;;2.93;2.60;;;15.60;48.70;;;;;;4998881;28;20226;-46
2022/04/16 07:30:33;;;;;;;3.53;3.23;;;15.70;48.40;;;;;;5003003;28;20202;-47
2022/04/16 07:32:59;;;;;;;3.10;2.80;;;15.70;48.20;;;;;;5009088;28;20197;-49
2022/04/16 07:35:26;;;;;;;2.83;2.53;;;15.80;48.20;;;;;;5003672;28;20204;-49
2022/04/16 07:37:56;;;;;;;5.43;3.10;;;15.90;48.00;;;;;;5005294;28;20198;-48
2022/04/16 07:40:23;;;;;;;11.13;3.63;;;15.90;48.00;;;;;;5007128;28;20783;-48
2022/04/16 07:42:49;;;;;;;4.00;3.53;;;15.80;48.20;;;;;;5014947;28;20446;-46
2022/04/16 07:45:14;;;;;;;4.33;3.23;;;15.90;48.60;;;;;;5010168;28;20477;-48
2022/04/16 07:47:40;;;;;;;4.80;3.40;;;15.90;48.50;;;;;;5004892;28;20249;-46
2022/04/16 07:50:06;;;;;;;3.97;3.60;;;16.00;48.30;;;;;;5009236;28;20527;-49
2022/04/16 07:52:31;;;;;;;5.03;4.30;;;16.10;48.80;;;;;;5004875;28;20186;-46
2022/04/16 07:54:57;;;;;;;3.97;3.67;;;16.20;48.20;;;;;;5004655;28;20456;-48
2022/04/16 07:57:23;;;;;;;7.17;4.60;;;16.30;48.10;;;;;;5002247;28;20213;-47
2022/04/16 07:59:48;;;;;;;6.23;5.30;;;16.20;48.20;;;;;;5005016;28;20287;-49
2022/04/16 08:02:14;;;;;;;5.47;4.77;;;16.00;48.50;;;;;;5011005;28;20284;-48
2022/04/16 08:04:39;;;;;;;6.70;5.33;;;15.60;48.90;;;;;;5013472;28;20198;-46
2022/04/16 08:07:05;;;;;;;5.77;5.23;;;15.50;49.40;;;;;;5003597;28;20646;-46
2022/04/16 08:09:30;;;;;;;7.03;6.40;;;15.50;49.80;;;;;;5016171;28;20201;-48
2022/04/16 08:11:57;;;;;;;6.90;5.87;;;15.50;50.00;;;;;;5013607;28;20194;-45
2022/04/16 08:14:23;;;;;;;6.50;5.70;;;15.40;50.40;;;;;;5006354;28;20693;-46
2022/04/16 08:16:49;;;;;;;6.63;5.93;;;15.40;50.50;;;;;;5006872;28;20857;-49
2022/04/16 08:19:15;;;;;;;7.00;6.13;;;15.50;50.80;;;;;;5007898;28;20445;-47
2022/04/16 08:21:41;;;;;;;8.23;6.43;;;15.40;50.70;;;;;;5010308;28;20679;-45
2022/04/16 08:26:50;;;;;;;6.60;5.90;;;15.40;50.50;;;;;;5007607;28;20451;-47
2022/04/16 08:29:16;;;;;;;7.07;5.20;;;15.60;50.40;;;;;;5006724;28;20485;-46
2022/04/16 08:31:41;;;;;;;6.00;5.50;;;15.70;50.40;;;;;;5010478;28;20598;-47
2022/04/16 08:34:07;;;;;;;7.00;5.57;;;15.80;50.60;;;;;;5010687;28;20198;-47
2022/04/16 08:36:33;;;;;;;6.67;5.97;;;15.80;49.90;;;;;;5009861;28;20193;-46
2022/04/16 08:38:58;;;;;;;7.13;6.10;;;15.60;49.80;;;;;;5008464;28;20894;-47
2022/04/16 08:41:25;;;;;;;5.93;5.33;;;15.50;49.90;;;;;;5010308;28;20234;-46
2022/04/16 08:43:54;;;;;;;7.57;5.97;;;15.60;50.40;;;;;;5010815;28;20280;-49
2022/04/16 08:46:20;;;;;;;6.40;5.70;;;15.50;50.60;;;;;;5005209;28;20531;-46
2022/04/16 08:48:47;;;;;;;7.77;6.80;;;15.50;51.10;;;;;;5012434;28;20885;-45
2022/04/16 08:51:13;;;;;;;8.00;7.20;;;15.20;50.50;;;;;;5007828;28;20194;-45
2022/04/16 08:53:38;;;;;;;8.23;7.23;;;15.10;51.00;;;;;;5011413;28;20954;-47
2022/04/16 08:56:04;;;;;;;7.83;7.03;;;15.00;51.10;;;;;;5009190;28;20221;-45
2022/04/16 08:58:30;;;;;;;8.07;7.00;;;14.90;51.20;;;;;;5010322;28;20194;-48
2022/04/16 09:00:56;;;;;;;11.60;7.40;;;14.90;51.40;;;;;;5002221;28;20285;-48
2022/04/16 09:03:30;;;;;;;8.27;6.40;;;14.90;51.40;;;;;;5004671;28;20449;-47
2022/04/16 09:05:55;;;;;;;7.13;6.37;;;14.70;51.00;;;;;;5007099;28;20801;-47
2022/04/16 09:08:28;;;;;;;7.20;6.50;;;14.80;51.80;;;;;;5018326;28;20488;-47
2022/04/16 09:11:04;;;;;;;7.43;6.63;;;14.90;51.80;;;;;;5006221;28;20209;-47
2022/04/16 09:13:30;;;;;;;7.13;6.43;;;15.00;51.60;;;;;;5005511;28;20853;-47
2022/04/16 09:16:03;;;;;;;8.23;6.90;;;14.90;51.20;;;;;;5003482;28;20528;-45
2022/04/16 09:18:29;;;;;;;7.50;6.27;;;15.10;51.30;;;;;;5005605;28;20201;-46
2022/04/16 09:20:55;;;;;;;9.03;6.57;;;15.20;51.90;;;;;;5007424;28;20437;-49
2022/04/16 09:23:22;;;;;;;7.73;6.87;;;15.30;51.90;;;;;;5005350;28;20201;-45
2022/04/16 09:25:49;;;;;;;7.60;6.80;;;15.50;51.50;;;;;;5004182;28;20259;-50
2022/04/16 09:28:16;;;;;;;6.47;5.77;;;15.20;51.60;;;;;;5004195;28;20492;-46
2022/04/16 09:30:53;;;;;;;6.83;6.17;;;15.20;51.80;;;;;;5005931;28;20473;-47
2022/04/16 09:33:19;;;;;;;8.40;7.47;;;15.10;51.10;;;;;;5005576;28;20502;-46
2022/04/16 09:35:46;;;;;;;9.47;6.77;;;15.10;51.60;;;;;;5002787;28;20479;-47
2022/04/16 09:38:12;;;;;;;8.20;7.20;;;15.10;51.40;;;;;;5009397;28;20777;-46
2022/04/16 09:40:38;;;;;;;7.13;6.40;;;15.10;52.20;;;;;;5001687;28;20436;-46
2022/04/16 09:43:06;;;;;;;8.00;6.40;;;15.40;51.60;;;;;;4994805;28;20438;-49
2022/04/16 09:45:33;;;;;;;11.33;6.60;;;15.60;52.10;;;;;;5001890;28;20265;-45
2022/04/16 09:48:00;;;;;;;7.90;6.57;;;15.90;50.60;;;;;;5007271;28;21125;-47
2022/04/16 09:50:32;;;;;;;9.03;6.73;;;16.10;50.10;;;;;;5004865;28;20591;-45
2022/04/16 09:53:02;;;;;;;7.97;7.17;;;16.30;49.60;;;;;;5008351;28;20452;-43
2022/04/16 09:55:29;;;;;;;8.60;7.13;;;16.80;49.80;;;;;;5003927;28;20448;-45
2022/04/16 09:57:58;;;;;;;7.57;6.43;;;17.10;47.90;;;;;;5003228;28;20498;-47
2022/04/16 10:00:25;;;;;;;7.93;7.13;;;17.40;47.90;;;;;;5005629;28;20495;-46
2022/04/16 10:02:52;;;;;;;8.57;6.90;;;17.30;46.90;;;;;;5005734;28;20436;-44
2022/04/16 10:05:20;;;;;;;8.13;7.30;;;17.30;46.30;;;;;;5006133;28;20449;-42
2022/04/16 10:07:47;;;;;;;7.30;6.10;;;17.30;46.50;;;;;;5006239;28;20471;-42
2022/04/16 10:10:25;;;;;;;9.13;5.90;;;17.30;45.30;;;;;;5005950;28;20433;-43
2022/04/16 10:13:04;;;;;;;8.30;6.90;;;17.40;45.20;;;;;;5007047;28;20820;-43
2022/04/16 10:15:54;;;;;;;8.00;7.20;;;17.40;44.20;;;;;;5006770;28;20476;-42
2022/04/16 10:18:20;;;;;;;7.10;5.97;;;17.50;46.00;;;;;;5006240;28;20444;-43
2022/04/16 10:20:57;;;;;;;7.00;6.30;;;17.70;44.70;;;;;;5006795;28;20441;-43
2022/04/16 10:23:27;;;;;;;8.50;6.50;;;17.90;44.90;;;;;;5006928;28;20450;-42
2022/04/16 10:26:04;;;;;;;9.40;7.47;;;18.10;45.00;;;;;;5007011;28;20445;-43
2022/04/16 10:28:43;;;;;;;8.50;7.60;;;18.20;44.30;;;;;;4999895;28;21149;-42
2022/04/16 10:31:24;;;;;;;11.13;8.40;;;18.30;43.30;;;;;;5001687;28;20448;-42
2022/04/16 10:34:05;;;;;;;7.40;6.57;;;18.20;43.60;;;;;;5003752;28;20499;-43
2022/04/16 10:36:54;;;;;;;7.70;6.90;;;17.90;42.90;;;;;;5006995;28;20448;-42
2022/04/16 10:39:24;;;;;;;6.37;5.77;;;17.90;44.10;;;;;;5005736;28;20467;-42
2022/04/16 10:41:57;;;;;;;7.10;6.40;;;18.10;44.50;;;;;;5003598;28;20487;-42
2022/04/16 10:44:23;;;;;;;6.40;5.60;;;18.20;45.20;;;;;;5000374;28;21024;-42
2022/04/16 10:46:50;;;;;;;7.00;6.13;;;18.30;44.00;;;;;;5006716;28;20494;-43
2022/04/16 10:49:17;;;;;;;8.60;6.20;;;18.50;43.40;;;;;;5005814;28;21000;-43
2022/04/16 10:51:44;;;;;;;6.00;5.37;;;18.70;42.70;;;;;;4998374;28;20498;-44
2022/04/16 10:54:14;;;;;;;5.27;4.73;;;18.90;41.80;;;;;;5002675;28;20448;-44
2022/04/16 10:56:51;;;;;;;6.40;5.80;;;18.90;41.50;;;;;;5005246;28;20492;-44
2022/04/16 10:59:16;;;;;;;5.80;5.20;;;18.90;41.80;;;;;;5006472;28;20445;-44
2022/04/16 11:01:52;;;;;;;6.57;5.63;;;19.10;41.10;;;;;;5007104;28;20444;-43
2022/04/16 11:04:18;;;;;;;6.27;5.73;;;19.20;40.50;;;;;;5007882;28;21390;-44
2022/04/16 11:06:54;;;;;;;5.30;4.70;;;19.10;39.40;;;;;;5006608;28;20516;-44
2022/04/16 11:09:20;;;;;;;4.53;4.13;;;19.10;40.30;;;;;;5008616;28;20239;-44
2022/04/16 11:11:52;;;;;;;5.83;4.87;;;19.10;40.40;;;;;;5012433;28;20528;-43
2022/04/16 11:14:19;;;;;;;6.37;5.30;;;19.20;40.50;;;;;;5011704;28;20506;-46
2022/04/16 11:16:46;;;;;;;5.33;4.83;;;19.10;38.70;;;;;;5010193;28;20449;-45
2022/04/16 11:19:13;;;;;;;7.27;5.10;;;18.90;39.30;;;;;;5007228;28;20523;-46
2022/04/16 11:21:39;;;;;;;4.53;4.13;;;19.00;41.30;;;;;;5007325;28;20460;-45
2022/04/16 11:24:08;;;;;;;4.80;4.30;;;18.80;39.80;;;;;;5012127;28;20448;-48
2022/04/16 11:34:57;;;;;;;5.30;4.73;;;19.20;39.60;;;;;;5011953;28;20463;-46
2022/04/16 11:37:23;;;;;;;5.67;5.00;;;19.20;38.90;;;;;;5010553;28;20933;-44
2022/04/16 11:40:05;;;;;;;5.43;4.93;;;19.10;38.10;;;;;;5009686;28;20921;-48
2022/04/16 11:42:31;;;;;;;5.83;4.73;;;19.10;38.40;;;;;;5007833;28;21093;-46
2022/04/16 11:44:57;;;;;;;5.97;5.37;;;19.20;38.30;;;;;;5005450;28;20611;-44
2022/04/16 11:47:26;;;;;;;6.13;5.53;;;19.00;37.80;;;;;;5008168;28;20531;-46
2022/04/16 11:49:58;;;;;;;5.47;4.87;;;19.20;39.00;;;;;;5004846;28;20536;-44
2022/04/16 11:52:24;;;;;;;4.50;4.10;;;19.30;39.00;;;;;;5010533;28;20795;-45
2022/04/16 11:55:25;;;;;;;4.90;4.47;;;19.50;39.00;;;;;;5004678;28;20452;-46
2022/04/16 11:57:54;;;;;;;6.07;5.57;;;19.80;37.70;;;;;;5002539;28;20195;-43
2022/04/16 12:00:22;;;;;;;6.50;4.67;;;19.70;36.80;;;;;;5011694;28;20433;-44
2022/04/16 12:02:55;;;;;;;5.03;4.63;;;19.80;37.00;;;;;;5009195;28;20550;-44
2022/04/16 12:05:27;;;;;;;6.30;5.03;;;19.90;38.30;;;;;;5005543;28;20444;-46
2022/04/16 12:07:53;;;;;;;4.70;4.20;;;20.20;37.70;;;;;;5008269;28;20488;-46
2022/04/16 12:10:19;;;;;;;6.10;5.50;;;20.50;37.20;;;;;;5003827;28;20555;-44
2022/04/16 12:12:50;;;;;;;4.43;4.03;;;20.70;35.60;;;;;;5007559;28;20444;-44
2022/04/16 12:15:22;;;;;;;5.40;4.20;;;20.70;34.50;;;;;;5009233;28;20441;-45
2022/04/16 12:17:48;;;;;;;4.67;4.20;;;20.90;34.60;;;;;;5006887;28;20486;-45
2022/04/16 12:20:14;;;;;;;5.20;4.70;;;20.90;34.60;;;;;;5008128;28;20440;-44
2022/04/16 12:22:57;;;;;;;4.37;3.97;;;21.10;35.40;;;;;;5006446;28;20442;-44
2022/04/16 12:25:24;;;;;;;5.50;3.73;;;21.20;35.00;;;;;;5005746;28;20206;-44
2022/04/16 12:27:54;;;;;;;5.03;4.20;;;21.40;35.00;;;;;;5000603;28;20481;-44
2022/04/16 12:30:25;;;;;;;4.80;4.30;;;21.40;33.10;;;;;;5000921;28;20465;-44
2022/04/16 12:33:03;;;;;;;4.53;4.10;;;21.00;32.20;;;;;;4999740;28;20520;-45
2022/04/16 12:35:31;;;;;;;4.93;4.17;;;20.90;34.10;;;;;;5004259;28;20448;-45
2022/04/16 12:37:57;;;;;;;4.07;3.67;;;20.90;33.30;;;;;;5009156;28;20452;-44
2022/04/16 12:40:25;;;;;;;4.83;4.33;;;20.60;31.80;;;;;;5003643;28;20849;-44
2022/04/16 12:42:52;;;;;;;4.73;4.30;;;20.40;32.60;;;;;;5004199;28;20522;-44
2022/04/16 12:45:18;;;;;;;4.07;3.67;;;20.50;32.90;;;;;;5008265;28;20480;-43
2022/04/16 12:47:44;;;;;;;6.93;4.23;;;20.70;32.90;;;;;;5007386;28;20495;-45
2022/04/16 12:50:11;;;;;;;4.03;3.63;;;21.00;33.00;;;;;;5003466;28;20441;-49
2022/04/16 12:52:37;;;;;;;3.90;3.50;;;20.90;33.50;;;;;;5007250;28;20194;-43
2022/04/16 12:55:03;;;;;;;4.57;3.70;;;20.80;33.50;;;;;;5009777;28;20448;-44
2022/04/16 12:57:28;;;;;;;4.13;3.67;;;20.90;34.20;;;;;;5013395;28;20448;-45
2022/04/16 12:59:54;;;;;;;3.73;3.43;;;21.00;32.50;;;;;;5011250;28;20433;-45
2022/04/16 13:02:20;;;;;;;4.83;4.33;;;21.10;33.50;;;;;;5011176;28;20324;-44
2022/04/16 13:04:46;;;;;;;5.77;4.37;;;21.00;32.20;;;;;;5012502;28;20998;-45
2022/04/16 13:07:11;;;;;;;4.20;3.60;;;21.10;34.20;;;;;;5008697;28;20205;-47
2022/04/16 13:09:37;;;;;;;5.40;4.40;;;21.20;33.80;;;;;;5005859;28;20325;-44
2022/04/16 13:12:03;;;;;;;6.87;5.83;;;21.40;34.40;;;;;;5008532;28;20190;-48